Kewadin, MI

12:45 AM EDT on April 02, 2015 (GMT -0400)
Grand Traverse Bay | | Change Station
CLOSE
Current Station
Personal Weather Station
Location: Eastport, MI
Elevation: 622 ft
Nearby Weather Stations

Elev 622 ft 45.11 °N, 85.36 °W | Updated 13 seconds ago

Mostly Cloudy
Mostly Cloudy
47.2 °F
Feels Like 47 °F
N
3.0
Wind Variable Wind from ENE
Gusts 8.0 mph

Today
High -- | Low -- °F
--% Chance of Precip.
Yesterday
High -- | Low -- °F
Precip. -- in
7:20 AM 8:10 PM
Waxing Gibbous, 95% visible
Pressure 29.75 in
Visibility 10.0 miles
Clouds Clear
Windchill 47 °F
Dew Point 36 °F
Humidity 66%
Rainfall 0.00 in
Snow Depth Not available.
UV 0 out of 12
Pollen 4.70 out of 12
Air Quality Not available.
Flu Activity Not available.
METAR KACB 020435Z AUTO 19007KT 10SM CLR 12/01 A2975 RMK AO2 T01170008

More Conditions Fewer Conditions

Pressure 29.75 in
Visibility 10.0 miles
Clouds Clear
Windchill 47 °F
Dew Point 36 °F
Humidity 66%
Rainfall 0.00 in
Snow Depth Not available.
UV 0 out of 12
Pollen 4.70 out of 12
Air Quality Not available.
Flu Activity Not available.
METAR KACB 020435Z AUTO 19007KT 10SM CLR 12/01 A2975 RMK AO2 T01170008

More Conditions Fewer Conditions

Nowcast | as of 12:00 am EDT on April 2, 2015

At 1 am...partly cloudy. Temperature 47. South winds 9 mph. At 3 am...partly cloudy. Temperature 45. South winds 9 mph. At 5 am...partly cloudy. Temperature 45. South winds 10 mph. At 7 am...mostly cloudy. Temperature 45. South winds 12 mph.

×

10-Day Weather Forecast

Almanac

Astronomy

Apr. 02, 2015 Rise Set
Actual Time
Civil Twilight
Nautical Twilight
Astronomical Twilight
Moon
Length of Visible Light
Length of Day
Tomorrow will be .
, % of the Moon is Illuminated

Today's Extremes

State Highs State Lows

Community

WunderPhotos

Upload Photos

1,810,198 photos uploaded!

WunderBlogs® & News

Nearby

Air Quality

  Air Quality AQ Index Pollutant
Not available.

Snow Depth

Station Depth Elevation

Earthquake Activity

City Distance Mag. Time & Date
Minimum magnitude displayed is 2.5.

Coastal Water Temperatures

Place Temperature

Stations

Nearby Weather Stations

Station Location Temp. Windchill Dew Point Humidity Wind Precip. Elev Updated Type